createdAt,value
2022-10-14T00:00:01.810Z,98954.59
2022-10-14T00:02:56.692Z,98960.94
2022-10-14T00:05:42.474Z,98962.91
2022-10-14T00:08:28.310Z,98951.81
2022-10-14T00:11:20.735Z,98956.56
2022-10-14T00:14:12.605Z,98950.25
2022-10-14T00:16:57.907Z,98956.56
2022-10-14T00:19:43.360Z,98955.03
2022-10-14T00:22:28.497Z,98952.25
2022-10-14T00:25:13.841Z,98946.72
2022-10-14T00:28:03.490Z,98946.28
2022-10-14T00:31:00.451Z,98949.88
2022-10-14T00:33:46.197Z,98949.47
2022-10-14T00:36:32.007Z,98959.75
2022-10-14T00:39:17.556Z,98953.44
2022-10-14T00:42:02.965Z,98958.19
2022-10-14T00:44:51.134Z,98948.69
2022-10-14T00:47:36.558Z,98947.13
2022-10-14T00:50:26.980Z,98956.66
2022-10-14T00:53:14.053Z,98951.88
2022-10-14T00:55:59.421Z,98952.66
2022-10-14T00:58:45.700Z,98947.53
2022-10-14T01:01:31.719Z,98951.88
2022-10-14T01:04:17.091Z,98951.88
2022-10-14T01:07:40.549Z,98946.34
2022-10-14T01:10:37.712Z,98949.88
2022-10-14T01:13:35.023Z,98953.88
2022-10-14T01:16:36.408Z,98951.09
2022-10-14T01:19:48.711Z,98951.09
2022-10-14T01:22:58.212Z,98947.97
2022-10-14T01:26:21.401Z,98949.53
2022-10-14T01:29:25.770Z,98943.97
2022-10-14T01:32:27.122Z,98942.44
2022-10-14T01:35:21.315Z,98943.19
2022-10-14T01:38:13.546Z,98945.19
2022-10-14T01:41:06.707Z,98941.22
2022-10-14T01:43:55.366Z,98943.97
2022-10-14T01:46:45.434Z,98943.97
2022-10-14T01:49:43.991Z,98946.75
2022-10-14T01:52:35.148Z,98932.91
2022-10-14T01:55:27.818Z,98932.13
2022-10-14T01:58:16.847Z,98934.13
2022-10-14T02:01:06.537Z,98929.75
2022-10-14T02:03:52.102Z,98916.69
2022-10-14T02:06:39.931Z,98924.22
2022-10-14T02:09:25.927Z,98928.56
2022-10-14T02:12:30.359Z,98920.25
2022-10-14T02:15:40.897Z,98925.81
2022-10-14T02:18:39.209Z,98919.47
2022-10-14T02:21:31.607Z,98913.91
2022-10-14T02:24:27.037Z,98905.59
2022-10-14T02:27:15.840Z,98908.38
2022-10-14T02:30:04.777Z,98908.38
2022-10-14T02:32:52.825Z,98904.81
2022-10-14T02:35:42.242Z,98906.41
2022-10-14T02:38:30.160Z,98902.84
2022-10-14T02:41:19.200Z,98906.81
2022-10-14T02:44:08.372Z,98900.06
2022-10-14T02:46:56.223Z,98905.19
2022-10-14T02:49:41.809Z,98907.59
2022-10-14T02:52:27.074Z,98900.50
2022-10-14T02:55:12.398Z,98902.06
2022-10-14T02:57:57.604Z,98895.75
2022-10-14T03:00:44.903Z,98903.28
2022-10-14T03:03:31.356Z,98900.50
2022-10-14T03:06:17.114Z,98897.38
2022-10-14T03:09:03.415Z,98890.25
2022-10-14T03:11:53.286Z,98893.81
2022-10-14T03:14:40.060Z,98892.25
2022-10-14T03:17:27.707Z,98892.25
2022-10-14T03:20:17.964Z,98886.69
2022-10-14T03:23:07.479Z,98884.69
2022-10-14T03:25:55.379Z,98891.47
2022-10-14T03:28:45.821Z,98889.47
2022-10-14T03:31:37.744Z,98894.22
2022-10-14T03:34:45.438Z,98883.16
2022-10-14T03:37:35.175Z,98883.94
2022-10-14T03:40:22.606Z,98886.28
2022-10-14T03:43:09.028Z,98885.50
2022-10-14T03:46:04.773Z,98877.97
2022-10-14T03:48:50.656Z,98879.16
2022-10-14T03:51:35.871Z,98876.75
2022-10-14T03:54:31.259Z,98873.53
2022-10-14T03:57:16.492Z,98871.91
2022-10-14T04:00:09.715Z,98867.88
2022-10-14T04:03:01.243Z,98866.25
2022-10-14T04:14:10.888Z,98859.84
2022-10-14T04:17:05.572Z,98853.13
2022-10-14T04:19:51.730Z,98857.03
2022-10-14T04:22:37.715Z,98855.81
2022-10-14T04:25:24.665Z,98855.00
2022-10-14T04:28:14.941Z,98850.22
2022-10-14T04:31:08.384Z,98860.91
2022-10-14T04:34:06.061Z,98862.03
2022-10-14T04:36:56.408Z,98854.09
2022-10-14T04:40:07.027Z,98857.22
2022-10-14T04:42:59.693Z,98850.88
2022-10-14T04:45:51.516Z,98849.69
2022-10-14T04:48:43.172Z,98846.47
2022-10-14T04:51:28.842Z,98849.22
2022-10-14T04:54:20.229Z,98849.22
2022-10-14T04:57:17.047Z,98853.13
2022-10-14T05:00:07.657Z,98838.09
2022-10-14T05:03:12.074Z,98843.13
2022-10-14T05:05:57.402Z,98841.56
2022-10-14T05:08:43.140Z,98838.78
2022-10-14T05:11:31.460Z,98838.38
2022-10-14T05:14:18.294Z,98842.28
2022-10-14T05:17:07.128Z,98845.84
2022-10-14T05:19:53.306Z,98849.31
2022-10-14T05:22:41.434Z,98849.31
2022-10-14T05:25:27.123Z,98852.09
2022-10-14T05:28:13.825Z,98839.72
2022-10-14T05:31:01.341Z,98831.78
2022-10-14T05:33:48.696Z,98832.56
2022-10-14T05:36:34.038Z,98837.31
2022-10-14T05:39:20.263Z,98847.28
2022-10-14T05:42:05.672Z,98843.66
2022-10-14T05:44:52.920Z,98839.31
2022-10-14T05:47:38.659Z,98836.97
2022-10-14T05:50:32.488Z,98839.31
2022-10-14T05:53:23.833Z,98831.34
2022-10-14T05:56:12.891Z,98833.78
2022-10-14T05:58:59.363Z,98835.75
2022-10-14T06:01:45.646Z,98841.66
2022-10-14T06:04:30.934Z,98842.03
2022-10-14T06:07:16.189Z,98835.22
2022-10-14T06:10:01.999Z,98843.09
2022-10-14T06:12:47.283Z,98839.91
2022-10-14T06:15:34.442Z,98849.34
2022-10-14T06:18:19.959Z,98843.38
2022-10-14T06:21:07.402Z,98842.16
2022-10-14T06:23:52.687Z,98843.34
2022-10-14T06:26:38.396Z,98831.00
2022-10-14T06:29:26.344Z,98844.47
2022-10-14T06:32:11.632Z,98846.38
2022-10-14T06:34:57.154Z,98848.38
2022-10-14T06:37:46.601Z,98845.19
2022-10-14T06:40:32.470Z,98845.50
2022-10-14T06:43:18.429Z,98841.97
2022-10-14T06:46:05.279Z,98841.56
2022-10-14T06:48:51.291Z,98841.50
2022-10-14T06:51:38.849Z,98839.13
2022-10-14T06:54:24.438Z,98849.38
2022-10-14T06:57:09.706Z,98845.81
2022-10-14T06:59:55.020Z,98844.59
2022-10-14T07:02:40.175Z,98852.13
2022-10-14T07:05:26.664Z,98848.94
2022-10-14T07:08:14.522Z,98851.63
2022-10-14T07:11:01.292Z,98852.84
2022-10-14T07:13:46.643Z,98851.63
2022-10-14T07:16:31.843Z,98856.00
2022-10-14T07:19:17.276Z,98862.66
2022-10-14T07:22:02.556Z,98858.00
2022-10-14T07:24:47.834Z,98855.13
2022-10-14T07:27:33.213Z,98861.13
2022-10-14T07:30:18.790Z,98861.13
2022-10-14T07:33:04.459Z,98855.94
2022-10-14T07:35:49.686Z,98856.25
2022-10-14T07:38:34.999Z,98859.84
2022-10-14T07:41:23.991Z,98866.16
2022-10-14T07:44:09.931Z,98860.63
2022-10-14T07:46:55.580Z,98868.53
2022-10-14T07:49:40.933Z,98868.06
2022-10-14T07:52:26.382Z,98865.31
2022-10-14T07:55:12.063Z,98868.44
2022-10-14T07:57:57.582Z,98864.09
2022-10-14T08:00:42.759Z,98868.44
2022-10-14T08:03:28.259Z,98870.78
2022-10-14T08:06:14.265Z,98865.59
2022-10-14T08:08:59.949Z,98873.91
2022-10-14T08:11:45.818Z,98871.16
2022-10-14T08:14:31.273Z,98863.19
2022-10-14T08:17:17.265Z,98869.94
2022-10-14T08:20:02.516Z,98867.50
2022-10-14T08:22:48.090Z,98861.97
2022-10-14T08:25:34.191Z,98867.16
2022-10-14T08:28:19.772Z,98864.38
2022-10-14T08:31:04.962Z,98858.81
2022-10-14T08:33:50.646Z,98860.03
2022-10-14T08:36:35.967Z,98860.41
2022-10-14T08:39:21.581Z,98862.72
2022-10-14T08:42:32.204Z,98865.09
2022-10-14T08:45:35.924Z,98850.03
2022-10-14T08:48:26.374Z,98854.38
2022-10-14T08:51:16.380Z,98855.56
2022-10-14T08:54:09.359Z,98854.38
2022-10-14T08:56:57.053Z,98858.34
2022-10-14T08:59:42.652Z,98857.16
2022-10-14T09:02:38.110Z,98856.38
2022-10-14T09:05:26.200Z,98848.81
2022-10-14T09:08:15.908Z,98847.25
2022-10-14T09:11:01.913Z,98844.47
2022-10-14T09:13:50.826Z,98838.91
2022-10-14T09:16:40.350Z,98839.72
2022-10-14T09:19:32.125Z,98842.50
2022-10-14T09:22:17.515Z,98845.63
2022-10-14T09:25:02.949Z,98844.81
2022-10-14T09:27:48.275Z,98848.41
2022-10-14T09:30:37.471Z,98842.09
2022-10-14T09:33:26.651Z,98839.75
2022-10-14T09:36:19.519Z,98840.53
2022-10-14T09:39:06.396Z,98837.34
2022-10-14T09:41:54.387Z,98842.53
2022-10-14T09:44:39.607Z,98838.91
2022-10-14T09:47:25.375Z,98841.69
2022-10-14T09:50:34.993Z,98842.03
2022-10-14T09:53:26.675Z,98836.50
2022-10-14T09:56:12.820Z,98841.28
2022-10-14T09:58:58.938Z,98835.34
2022-10-14T10:01:54.338Z,98829.31
2022-10-14T10:04:47.779Z,98818.13
2022-10-14T10:07:35.209Z,98819.72
2022-10-14T10:10:22.719Z,98820.84
2022-10-14T10:13:22.679Z,98813.66
2022-10-14T10:19:28.933Z,98807.22
2022-10-14T10:22:31.479Z,98811.47
2022-10-14T10:25:19.818Z,98797.69
2022-10-14T10:28:16.721Z,98799.25
2022-10-14T10:31:26.663Z,98807.56
2022-10-14T10:34:34.456Z,98809.94
2022-10-14T10:37:28.146Z,98803.94
2022-10-14T10:40:16.612Z,98795.63
2022-10-14T10:43:26.833Z,98800.31
2022-10-14T10:46:45.197Z,98795.97
2022-10-14T10:49:51.657Z,98800.72
2022-10-14T10:52:52.155Z,98797.94
2022-10-14T10:55:54.044Z,98799.19
2022-10-14T10:59:36.429Z,98799.19
2022-10-14T11:02:38.021Z,98795.63
2022-10-14T11:05:57.208Z,98784.53
2022-10-14T11:09:16.971Z,98790.44
2022-10-14T11:12:33.124Z,98787.66
2022-10-14T11:15:29.310Z,98778.88
2022-10-14T11:18:33.062Z,98786.78
2022-10-14T11:21:25.547Z,98781.22
2022-10-14T11:24:37.188Z,98776.78
2022-10-14T11:27:31.573Z,98769.34
2022-10-14T11:30:26.162Z,98768.47
2022-10-14T11:33:22.543Z,98770.88
2022-10-14T11:36:38.583Z,98766.13
2022-10-14T11:39:48.332Z,98753.81
2022-10-14T11:42:54.096Z,98748.59
2022-10-14T11:46:03.742Z,98746.19
2022-10-14T11:49:13.021Z,98742.16
2022-10-14T11:52:03.341Z,98743.81
2022-10-14T11:55:01.753Z,98746.25
2022-10-14T11:57:53.534Z,98740.69
2022-10-14T12:00:59.132Z,98738.28
2022-10-14T12:03:59.909Z,98743.41
2022-10-14T12:06:53.302Z,98737.91
2022-10-14T12:09:48.219Z,98730.00
2022-10-14T12:12:36.578Z,98735.91
2022-10-14T12:15:26.130Z,98732.72
2022-10-14T12:18:12.229Z,98722.03
2022-10-14T12:21:23.484Z,98724.38
2022-10-14T12:24:16.357Z,98722.03
2022-10-14T12:27:05.587Z,98713.72
2022-10-14T12:29:52.972Z,98719.25
2022-10-14T12:33:05.671Z,98712.94
2022-10-14T12:35:59.822Z,98709.81
2022-10-14T12:39:17.077Z,98712.94
2022-10-14T12:42:03.052Z,98710.50
2022-10-14T12:44:56.201Z,98705.72
2022-10-14T12:47:41.784Z,98712.84
2022-10-14T12:50:34.533Z,98708.16
2022-10-14T12:53:32.974Z,98708.16
2022-10-14T12:57:02.415Z,98707.38
2022-10-14T12:59:52.941Z,98706.59
2022-10-14T13:02:44.935Z,98701.91
2022-10-14T13:05:44.561Z,98694.78
2022-10-14T13:08:30.223Z,98693.25
2022-10-14T13:11:26.003Z,98694.09
2022-10-14T13:14:24.131Z,98690.47
2022-10-14T13:17:41.963Z,98683.34
2022-10-14T13:20:51.638Z,98681.34
2022-10-14T13:23:47.618Z,98683.69
2022-10-14T13:26:36.272Z,98680.16
2022-10-14T13:29:21.269Z,98686.81
2022-10-14T13:32:42.926Z,98673.72
2022-10-14T13:36:03.907Z,98675.38
2022-10-14T13:38:57.786Z,98667.03
2022-10-14T13:41:44.011Z,98665.81
2022-10-14T13:44:29.858Z,98665.03
2022-10-14T13:47:22.214Z,98658.72
2022-10-14T13:50:12.795Z,98658.28
2022-10-14T13:53:03.348Z,98654.28
2022-10-14T13:55:54.704Z,98651.06
2022-10-14T13:58:42.131Z,98650.28
2022-10-14T14:01:36.364Z,98642.75
2022-10-14T14:04:28.167Z,98645.53
2022-10-14T14:07:47.800Z,98649.84
2022-10-14T14:10:26.050Z,98642.28
2022-10-14T14:13:13.398Z,98640.75
2022-10-14T14:15:59.051Z,98641.50
2022-10-14T14:19:03.905Z,98635.97
2022-10-14T14:22:13.859Z,98643.09
2022-10-14T14:25:36.964Z,98641.97
2022-10-14T14:28:32.348Z,98639.19
2022-10-14T14:31:22.068Z,98632.84
2022-10-14T14:34:07.414Z,98629.72
2022-10-14T14:36:55.685Z,98630.06
2022-10-14T14:40:15.631Z,98622.19
2022-10-14T14:43:04.308Z,98615.06
2022-10-14T14:45:50.176Z,98603.53
2022-10-14T14:48:36.768Z,98609.06
2022-10-14T14:51:23.326Z,98605.19
2022-10-14T14:54:18.120Z,98601.19
2022-10-14T14:57:07.439Z,98601.19
2022-10-14T15:00:07.295Z,98601.63
2022-10-14T15:02:59.743Z,98600.06
2022-10-14T15:06:05.703Z,98605.19
2022-10-14T15:08:54.030Z,98600.41
2022-10-14T15:11:57.982Z,98603.94
2022-10-14T15:14:52.641Z,98598.06
2022-10-14T15:17:47.035Z,98602.06
2022-10-14T15:20:37.311Z,98596.16
2022-10-14T15:23:56.257Z,98591.38
2022-10-14T15:29:26.955Z,98598.16
2022-10-14T15:32:14.818Z,98598.25
2022-10-14T15:35:01.146Z,98603.03
2022-10-14T15:37:48.399Z,98601.78
2022-10-14T15:40:34.199Z,98606.16
2022-10-14T15:43:24.636Z,98607.69
2022-10-14T15:46:32.184Z,98600.25
2022-10-14T15:49:26.937Z,98599.91
2022-10-14T15:52:15.983Z,98602.31
2022-10-14T15:55:01.196Z,98598.44
2022-10-14T15:57:48.529Z,98597.53
2022-10-14T16:00:34.368Z,98599.53
2022-10-14T16:03:23.846Z,98595.88
2022-10-14T16:06:09.166Z,98595.88
2022-10-14T16:08:55.423Z,98593.56
2022-10-14T16:11:40.942Z,98586.38
2022-10-14T16:14:27.659Z,98593.47
2022-10-14T16:19:59.379Z,98581.16
2022-10-14T16:22:44.972Z,98571.94
2022-10-14T16:25:40.007Z,98572.28
2022-10-14T16:28:25.921Z,98568.41
2022-10-14T16:31:14.651Z,98564.50
2022-10-14T16:34:00.231Z,98560.16
2022-10-14T16:36:46.398Z,98558.94
2022-10-14T16:39:31.591Z,98551.81
2022-10-14T16:42:18.462Z,98553.75
2022-10-14T16:45:04.758Z,98542.28
2022-10-14T16:47:50.116Z,98557.72
2022-10-14T16:50:35.542Z,98551.06
2022-10-14T16:53:40.274Z,98556.53
2022-10-14T16:59:30.651Z,98553.28
2022-10-14T17:02:17.597Z,98556.94
2022-10-14T17:13:14.105Z,98556.53
2022-10-14T17:16:02.312Z,98556.94
2022-10-14T17:24:26.329Z,98557.03
2022-10-14T17:27:11.864Z,98561.03
2022-10-14T17:29:57.042Z,98562.50
2022-10-14T17:32:42.355Z,98574.38
2022-10-14T17:35:29.367Z,98572.81
2022-10-14T17:38:14.947Z,98567.28
2022-10-14T17:41:07.269Z,98572.81
2022-10-14T17:43:55.531Z,98575.25
2022-10-14T17:46:41.090Z,98566.59
2022-10-14T17:49:26.997Z,98572.13
2022-10-14T17:52:12.738Z,98566.59
2022-10-14T17:55:00.588Z,98561.03
2022-10-14T17:57:48.322Z,98555.47
2022-10-14T18:00:34.094Z,98551.13
2022-10-14T18:03:19.524Z,98554.72
2022-10-14T18:06:19.431Z,98555.47
2022-10-14T18:09:07.962Z,98559.81
2022-10-14T18:12:08.126Z,98559.47
2022-10-14T18:14:54.465Z,98552.34
2022-10-14T18:17:40.032Z,98557.91
2022-10-14T18:20:26.415Z,98548.81
2022-10-14T18:23:13.276Z,98551.13
2022-10-14T18:26:07.163Z,98547.16
2022-10-14T18:28:57.269Z,98546.81
2022-10-14T18:39:52.302Z,98527.91
2022-10-14T18:42:37.122Z,98524.78
2022-10-14T18:45:19.908Z,98528.00
2022-10-14T18:48:05.775Z,98526.88
2022-10-14T18:50:59.215Z,98522.19
2022-10-14T18:53:46.390Z,98525.81
2022-10-14T18:56:35.395Z,98530.25
2022-10-14T18:59:23.211Z,98526.34
2022-10-14T19:02:12.920Z,98524.34
2022-10-14T19:04:58.501Z,98525.56
2022-10-14T19:07:43.819Z,98515.25
2022-10-14T19:10:32.488Z,98517.25
2022-10-14T19:13:17.932Z,98516.47
2022-10-14T19:16:08.679Z,98505.38
2022-10-14T19:19:04.448Z,98513.44
2022-10-14T19:21:54.116Z,98513.84
2022-10-14T19:24:39.555Z,98513.50
2022-10-14T19:27:25.016Z,98506.84
2022-10-14T19:30:11.100Z,98507.31
2022-10-14T19:32:56.289Z,98502.19
2022-10-14T19:35:41.509Z,98491.97
2022-10-14T19:38:27.360Z,98476.53
2022-10-14T19:41:12.748Z,98467.41
2022-10-14T19:43:59.478Z,98465.50
2022-10-14T19:46:44.935Z,98466.72
2022-10-14T19:49:30.249Z,98456.16
2022-10-14T19:52:15.482Z,98456.94
2022-10-14T19:55:00.679Z,98450.63
2022-10-14T19:57:45.841Z,98446.72
2022-10-14T20:00:32.009Z,98447.16
2022-10-14T20:03:17.070Z,98432.94
2022-10-14T20:06:02.888Z,98439.72
2022-10-14T20:08:48.214Z,98444.56
2022-10-14T20:11:33.868Z,98437.91
2022-10-14T20:14:19.269Z,98435.22
2022-10-14T20:17:04.816Z,98424.88
2022-10-14T20:19:50.448Z,98416.22
2022-10-14T20:22:35.780Z,98409.97
2022-10-14T20:25:21.175Z,98402.91
2022-10-14T20:28:06.437Z,98403.66
2022-10-14T20:30:53.993Z,98407.22
2022-10-14T20:33:39.609Z,98389.47
2022-10-14T20:36:25.053Z,98400.56
2022-10-14T20:39:10.573Z,98399.00
2022-10-14T20:41:55.938Z,98399.78
2022-10-14T20:44:41.151Z,98406.56
2022-10-14T20:47:26.292Z,98401.44
2022-10-14T20:50:11.543Z,98403.44
2022-10-14T20:52:56.889Z,98406.63
2022-10-14T20:55:42.041Z,98404.19
2022-10-14T20:58:27.328Z,98399.09
2022-10-14T21:01:15.471Z,98389.66
2022-10-14T21:04:02.423Z,98390.41
2022-10-14T21:06:47.643Z,98390.06
2022-10-14T21:09:32.849Z,98394.84
2022-10-14T21:12:18.392Z,98380.63
2022-10-14T21:15:04.362Z,98372.66
2022-10-14T21:17:50.161Z,98373.09
2022-10-14T21:20:35.611Z,98375.97
2022-10-14T21:23:20.794Z,98370.84
2022-10-14T21:26:06.047Z,98362.13
2022-10-14T21:28:51.979Z,98354.22
2022-10-14T21:31:37.057Z,98354.69
2022-10-14T21:34:24.868Z,98353.44
2022-10-14T21:37:10.130Z,98343.25
2022-10-14T21:39:55.299Z,98340.47
2022-10-14T21:42:40.692Z,98336.13
2022-10-14T21:45:25.777Z,98336.13
2022-10-14T21:48:11.000Z,98337.72
2022-10-14T21:51:04.603Z,98333.34
2022-10-14T21:53:50.107Z,98330.66
2022-10-14T21:56:35.226Z,98325.56
2022-10-14T21:59:20.503Z,98323.50
2022-10-14T22:02:05.699Z,98316.34
2022-10-14T22:04:50.980Z,98318.00
2022-10-14T22:07:36.263Z,98320.00
2022-10-14T22:10:40.121Z,98322.78
2022-10-14T22:13:25.892Z,98307.81
2022-10-14T22:16:13.458Z,98303.81
2022-10-14T22:19:00.729Z,98303.03
2022-10-14T22:21:48.775Z,98293.59
2022-10-14T22:24:34.477Z,98284.06
2022-10-14T22:27:19.646Z,98293.16
2022-10-14T22:30:05.428Z,98288.41
2022-10-14T22:32:50.595Z,98285.28
2022-10-14T22:35:35.851Z,98284.53
2022-10-14T22:38:21.167Z,98284.53
2022-10-14T22:41:07.156Z,98283.28
2022-10-14T22:43:55.173Z,98283.72
2022-10-14T22:46:40.843Z,98267.09
2022-10-14T22:49:26.058Z,98277.75
2022-10-14T22:52:11.452Z,98274.63
2022-10-14T22:54:56.610Z,98273.09
2022-10-14T22:57:42.016Z,98280.19
2022-10-14T23:00:27.209Z,98269.97
2022-10-14T23:03:13.041Z,98279.81
2022-10-14T23:06:03.805Z,98265.22
2022-10-14T23:08:49.368Z,98263.22
2022-10-14T23:11:34.682Z,98265.97
2022-10-14T23:14:19.959Z,98267.22
2022-10-14T23:17:05.215Z,98267.22
2022-10-14T23:19:50.495Z,98259.66
2022-10-14T23:22:35.707Z,98252.56
2022-10-14T23:25:20.875Z,98257.31
2022-10-14T23:28:06.692Z,98247.81
2022-10-14T23:30:52.224Z,98249.00
2022-10-14T23:33:37.470Z,98251.78
2022-10-14T23:36:23.195Z,98243.47
2022-10-14T23:39:09.165Z,98244.69
2022-10-14T23:41:54.979Z,98239.94
2022-10-14T23:44:40.131Z,98242.69
2022-10-14T23:47:25.698Z,98232.03
2022-10-14T23:50:11.288Z,98232.84
2022-10-14T23:52:56.638Z,98234.38
2022-10-14T23:55:42.352Z,98233.59
2022-10-14T23:58:29.694Z,98230.84
